Time;durP1;ratioP1;P1;durP2;ratioP2;P2;SDS_P1;SDS_P2;PMS_P1;PMS_P2;Temp;Humidity;BMP_temperature;BMP_pressure;BME280_temperature;BME280_humidity;BME280_pressure;Samples;Min_cycle;Max_cycle;Signal;HPM_P1;HPM_P2
2023/09/13 00:09:53;;;;;;;11.00;2.60;;;;;;;23.16;100.00;101045.56;20931872;28;20519;-73
2023/09/13 00:20:16;;;;;;;11.10;2.97;;;;;;;23.09;100.00;101052.06;20930340;28;20055;-73
2023/09/13 00:30:40;;;;;;;10.45;3.28;;;;;;;23.01;100.00;101045.09;20929429;28;20155;-72
2023/09/13 00:41:03;;;;;;;8.43;2.60;;;;;;;22.97;100.00;101050.66;20929358;28;20056;-73
2023/09/13 00:51:28;;;;;;;6.97;2.97;;;;;;;22.86;100.00;101044.69;20887038;28;20045;-73
2023/09/13 01:01:51;;;;;;;9.85;3.13;;;;;;;22.83;100.00;101042.09;20927081;28;20551;-72
2023/09/13 01:12:16;;;;;;;13.63;3.15;;;;;;;22.80;100.00;101028.72;20912793;28;20048;-72
2023/09/13 01:23:20;;;;;;;9.75;3.13;;;;;;;22.75;100.00;101033.38;20925711;28;20048;-72
2023/09/13 01:33:45;;;;;;;12.95;3.17;;;;;;;22.65;100.00;101024.63;20896913;28;20099;-72
2023/09/13 01:44:08;;;;;;;13.13;3.50;;;;;;;22.66;100.00;101021.03;20897023;28;20079;-72
2023/09/13 01:54:36;;;;;;;9.82;2.65;;;;;;;22.59;100.00;101014.94;20924654;28;20520;-72
2023/09/13 02:04:59;;;;;;;11.98;2.97;;;;;;;22.56;100.00;101015.03;20924257;28;20522;-73
2023/09/13 02:15:23;;;;;;;11.80;2.70;;;;;;;22.50;100.00;101017.03;20934525;28;20060;-73
2023/09/13 02:25:45;;;;;;;10.77;2.50;;;;;;;22.54;100.00;101013.31;20926019;28;20049;-72
2023/09/13 02:36:11;;;;;;;9.23;2.63;;;;;;;22.53;100.00;101019.63;20939984;28;20461;-72
2023/09/13 02:46:35;;;;;;;12.27;3.10;;;;;;;22.48;100.00;101041.28;20896521;28;20581;-72
2023/09/13 02:57:00;;;;;;;8.80;2.60;;;;;;;22.50;100.00;101038.56;20894675;28;20084;-72
2023/09/13 03:07:26;;;;;;;7.33;2.70;;;;;;;22.47;100.00;101044.03;20895371;28;20638;-72
2023/09/13 03:17:51;;;;;;;12.15;2.80;;;;;;;22.46;100.00;101042.25;20935591;28;20140;-73
2023/09/13 03:28:14;;;;;;;8.15;2.42;;;;;;;22.41;100.00;101049.59;20905355;28;20075;-72
2023/09/13 03:38:40;;;;;;;13.35;3.55;;;;;;;22.47;100.00;101061.06;20892364;28;20148;-72
2023/09/13 03:49:03;;;;;;;10.10;2.65;;;;;;;22.44;100.00;101061.16;20916792;28;20052;-72
2023/09/13 03:59:28;;;;;;;12.93;3.33;;;;;;;22.45;100.00;101076.34;20890402;28;20098;-72
2023/09/13 04:09:50;;;;;;;9.90;2.80;;;;;;;22.53;100.00;101078.81;20889865;28;20049;-72
2023/09/13 04:20:15;;;;;;;9.55;2.47;;;;;;;22.67;100.00;101084.69;20888122;28;20061;-72
2023/09/13 04:30:38;;;;;;;10.95;3.25;;;;;;;22.79;100.00;101095.13;20887210;28;20102;-72
2023/09/13 04:41:05;;;;;;;10.82;2.38;;;;;;;22.89;100.00;101102.03;20896519;28;20147;-73
2023/09/13 04:51:28;;;;;;;16.10;3.10;;;;;;;22.93;100.00;101114.47;20914469;28;20166;-72
2023/09/13 05:01:52;;;;;;;11.38;2.60;;;;;;;22.99;100.00;101113.41;20912977;28;20043;-72
2023/09/13 05:12:14;;;;;;;10.18;2.38;;;;;;;23.19;100.00;101124.47;20898611;28;20138;-73
2023/09/13 05:22:38;;;;;;;11.60;2.42;;;;;;;23.33;100.00;101130.31;20898220;28;20057;-72
2023/09/13 05:33:02;;;;;;;11.30;2.30;;;;;;;23.53;100.00;101135.09;20897357;28;20124;-72
2023/09/13 05:43:28;;;;;;;7.50;2.65;;;;;;;23.81;100.00;101148.59;20911028;28;20111;-72
2023/09/13 05:53:51;;;;;;;7.28;2.10;;;;;;;24.21;100.00;101154.44;20896214;28;20045;-73
2023/09/13 06:04:15;;;;;;;10.57;2.38;;;;;;;24.45;100.00;101160.78;20924671;28;20435;-72
2023/09/13 06:14:38;;;;;;;9.30;2.15;;;;;;;25.14;100.00;101161.00;20923371;28;20049;-73
2023/09/13 06:25:03;;;;;;;7.95;1.88;;;;;;;26.72;100.00;101185.09;20880781;28;20611;-73
2023/09/13 06:35:25;;;;;;;7.45;1.50;;;;;;;26.90;100.00;101181.63;20922984;28;20143;-73
2023/09/13 06:45:49;;;;;;;8.65;1.90;;;;;;;27.54;100.00;101189.50;20879845;28;20634;-73
2023/09/13 06:56:12;;;;;;;7.13;1.77;;;;;;;27.17;100.00;101197.56;20923725;28;20139;-73
2023/09/13 07:06:37;;;;;;;5.57;1.48;;;;;;;27.30;100.00;101215.91;20936842;28;20053;-73
2023/09/13 07:16:59;;;;;;;9.57;1.70;;;;;;;27.85;100.00;101213.31;20935742;28;20136;-73
2023/09/13 07:27:23;;;;;;;8.02;1.92;;;;;;;28.07;100.00;101208.59;20935264;28;20056;-73
2023/09/13 07:37:46;;;;;;;6.72;1.58;;;;;;;28.74;96.39;101220.59;20934011;28;20045;-73
2023/09/13 07:48:10;;;;;;;8.50;1.75;;;;;;;29.60;88.47;101212.31;20864663;28;20095;-73
2023/09/13 07:58:32;;;;;;;9.10;1.88;;;;;;;29.86;82.59;101211.69;20822111;28;20045;-73
2023/09/13 08:08:58;;;;;;;7.88;1.60;;;;;;;30.20;74.89;101216.06;20807484;28;20049;-74
2023/09/13 08:19:20;;;;;;;7.03;1.83;;;;;;;30.70;73.59;101228.56;20848210;28;20077;-73
2023/09/13 08:29:44;;;;;;;9.43;1.83;;;;;;;31.11;65.78;101223.34;20805229;28;20072;-74
2023/09/13 08:40:07;;;;;;;5.57;1.98;;;;;;;31.44;63.67;101210.25;20851828;28;20041;-74
2023/09/13 08:50:34;;;;;;;9.30;1.55;;;;;;;31.34;61.80;101220.00;20928572;28;20405;-73
2023/09/13 09:00:59;;;;;;;5.40;1.70;;;;;;;31.43;59.92;101222.19;20927294;28;20485;-74
2023/09/13 09:11:25;;;;;;;;;;;;;;;31.96;56.74;101217.84;20913634;28;20140;-74
2023/09/13 09:21:48;;;;;;;6.97;2.00;;;;;;;31.81;53.79;101216.97;20896344;28;19925;-74
2023/09/13 09:32:14;;;;;;;7.80;1.77;;;;;;;32.12;51.07;101210.34;20915296;28;20114;-73
2023/09/13 09:42:38;;;;;;;4.78;1.60;;;;;;;32.41;50.60;101214.75;20895104;28;20053;-74
2023/09/13 09:53:09;;;;;;;6.93;1.70;;;;;;;32.44;48.44;101210.94;20922673;28;20140;-73
2023/09/13 10:03:34;;;;;;;5.60;1.70;;;;;;;32.66;48.26;101205.75;20894908;28;20136;-73
2023/09/13 10:13:58;;;;;;;6.63;2.20;;;;;;;32.72;48.19;101218.13;20879355;28;20462;-73
2023/09/13 10:24:23;;;;;;;5.47;1.75;;;;;;;32.67;47.79;101217.59;20878542;28;20048;-73
2023/09/13 10:34:53;;;;;;;5.82;1.75;;;;;;;32.84;46.91;101233.69;20881389;28;20041;-73
2023/09/13 10:45:18;;;;;;;11.57;1.80;;;;;;;32.41;46.76;101216.63;20907712;28;20064;-73
2023/09/13 10:55:44;;;;;;;6.35;1.90;;;;;;;32.14;47.71;101211.16;20894675;28;20055;-74
2023/09/13 11:06:07;;;;;;;7.27;1.80;;;;;;;31.65;48.77;101203.44;20907839;28;20041;-73
2023/09/13 11:16:31;;;;;;;9.10;2.10;;;;;;;31.46;49.25;101202.84;20906554;28;20049;-74
2023/09/13 11:26:55;;;;;;;10.50;1.95;;;;;;;31.36;49.79;101187.19;20905555;28;20056;-74
2023/09/13 11:37:20;;;;;;;8.70;2.30;;;;;;;31.32;51.20;101185.59;20891391;28;20130;-74
2023/09/13 11:47:44;;;;;;;6.90;2.30;;;;;;;31.16;51.64;101167.50;20900917;28;20459;-75
2023/09/13 11:58:08;;;;;;;7.85;2.38;;;;;;;30.90;53.97;101170.97;20932487;28;20072;-74
2023/09/13 12:08:31;;;;;;;12.10;2.45;;;;;;;30.64;54.69;101161.69;20930168;28;20053;-71
2023/09/13 12:18:55;;;;;;;7.90;2.40;;;;;;;30.65;54.53;101157.09;20930889;28;20085;-75
2023/09/13 12:29:17;;;;;;;10.35;2.47;;;;;;;30.58;53.15;101158.44;20930027;28;20098;-75
2023/09/13 12:39:42;;;;;;;9.32;2.47;;;;;;;30.39;52.64;101150.50;20929806;28;20056;-75
2023/09/13 12:50:07;;;;;;;8.80;2.33;;;;;;;30.22;51.86;101148.75;20846824;28;20050;-74
2023/09/13 13:00:33;;;;;;;7.03;2.28;;;;;;;30.07;51.70;101145.09;20844903;28;20061;-75
2023/09/13 13:10:58;;;;;;;9.27;2.60;;;;;;;29.90;50.83;101147.03;20843443;28;20057;-74
2023/09/13 13:21:26;;;;;;;10.32;2.92;;;;;;;29.81;50.26;101151.16;20843414;28;20409;-75
2023/09/13 13:31:49;;;;;;;7.72;2.33;;;;;;;29.67;52.21;101137.47;20843289;28;20065;-75
2023/09/13 13:42:13;;;;;;;9.50;2.70;;;;;;;29.41;55.14;101132.63;20864789;28;20453;-74
2023/09/13 13:52:36;;;;;;;7.57;2.60;;;;;;;29.19;57.29;101136.56;20906030;28;20049;-74
2023/09/13 14:03:00;;;;;;;9.80;2.75;;;;;;;29.28;58.40;101125.13;20880088;28;20141;-74
2023/09/13 14:13:25;;;;;;;9.07;2.40;;;;;;;29.37;59.39;101142.84;20896666;28;20048;-74
2023/09/13 14:23:50;;;;;;;9.05;2.33;;;;;;;29.42;56.90;101138.00;20910938;28;20114;-74
2023/09/13 14:34:12;;;;;;;8.15;2.30;;;;;;;29.10;52.97;101136.19;20896537;28;20053;-74
2023/09/13 14:44:38;;;;;;;8.68;2.53;;;;;;;28.56;54.56;101130.00;20909722;28;20037;-74
2023/09/13 14:55:01;;;;;;;7.00;2.33;;;;;;;28.20;57.98;101137.38;20905461;28;20138;-74
2023/09/13 15:05:25;;;;;;;8.18;2.55;;;;;;;27.85;63.12;101134.59;20909113;28;20061;-75
2023/09/13 15:15:48;;;;;;;8.27;2.50;;;;;;;27.64;64.95;101133.81;20908263;28;20059;-75
2023/09/13 15:26:13;;;;;;;12.63;3.42;;;;;;;27.35;66.22;101127.09;20907584;28;20707;-75
2023/09/13 15:36:35;;;;;;;12.38;2.70;;;;;;;27.14;66.55;101132.63;20893011;28;20053;-74
2023/09/13 15:47:00;;;;;;;7.15;2.55;;;;;;;26.90;67.31;101132.84;20907080;28;20500;-74
2023/09/13 15:57:23;;;;;;;9.20;2.45;;;;;;;26.77;67.86;101137.03;20932642;28;20491;-74
2023/09/13 16:07:47;;;;;;;7.55;2.80;;;;;;;26.59;69.88;101129.72;20925203;28;20131;-74
2023/09/13 16:18:09;;;;;;;12.43;3.53;;;;;;;26.29;76.15;101121.13;20901626;28;20051;-74
2023/09/13 16:28:34;;;;;;;9.38;2.97;;;;;;;26.05;78.95;101117.63;20900546;28;20102;-74
2023/09/13 16:38:56;;;;;;;8.82;2.50;;;;;;;25.83;81.29;101124.88;20900281;28;20496;-74
2023/09/13 16:49:20;;;;;;;8.25;2.63;;;;;;;25.66;87.38;101122.00;20899652;28;20743;-74
2023/09/13 16:59:43;;;;;;;7.07;2.13;;;;;;;25.49;93.31;101117.22;20898035;28;20151;-75
2023/09/13 17:10:08;;;;;;;10.93;2.97;;;;;;;25.34;98.11;101134.94;20897831;28;20057;-75
2023/09/13 17:20:31;;;;;;;9.25;2.95;;;;;;;25.19;100.00;101134.69;20898878;28;20083;-74
2023/09/13 17:30:56;;;;;;;8.75;2.75;;;;;;;25.02;100.00;101144.28;20902647;28;20041;-74
2023/09/13 17:41:18;;;;;;;9.48;2.85;;;;;;;24.86;100.00;101144.91;20900570;28;20053;-74
2023/09/13 17:51:42;;;;;;;8.55;3.33;;;;;;;24.71;100.00;101149.06;20900661;28;20045;-73
2023/09/13 18:02:08;;;;;;;10.38;2.97;;;;;;;24.54;100.00;101157.78;20900974;28;20401;-75
2023/09/13 18:12:33;;;;;;;11.10;2.95;;;;;;;24.46;100.00;101162.56;20900913;28;20091;-73
2023/09/13 18:22:55;;;;;;;8.85;3.33;;;;;;;24.31;100.00;101181.09;20898572;28;20053;-73
2023/09/13 18:33:20;;;;;;;11.35;6.63;;;;;;;24.21;100.00;101180.53;20900053;28;20439;-73
2023/09/13 18:43:43;;;;;;;17.65;7.72;;;;;;;24.17;100.00;101187.81;20885328;28;20053;-73
2023/09/13 18:54:08;;;;;;;19.85;7.03;;;;;;;24.13;100.00;101186.16;20905232;28;20060;-74
2023/09/13 19:04:31;;;;;;;12.80;3.70;;;;;;;24.03;100.00;101187.38;20914629;28;20684;-73
2023/09/13 19:14:56;;;;;;;8.48;2.75;;;;;;;23.92;100.00;101180.59;20912621;28;20041;-73
2023/09/13 19:25:19;;;;;;;16.00;5.97;;;;;;;23.73;100.00;101183.88;20912473;28;20045;-73
2023/09/13 19:35:44;;;;;;;11.27;3.25;;;;;;;23.64;100.00;101183.28;20897950;28;21077;-73
2023/09/13 19:46:07;;;;;;;11.25;3.67;;;;;;;23.50;100.00;101180.16;20884527;28;20041;-73
2023/09/13 19:56:31;;;;;;;11.77;3.83;;;;;;;23.43;100.00;101184.81;20870056;28;20155;-74
2023/09/13 20:06:53;;;;;;;10.23;3.25;;;;;;;23.37;100.00;101198.44;20904218;28;20186;-75
2023/09/13 20:17:17;;;;;;;10.07;3.30;;;;;;;23.26;100.00;101197.91;20899711;28;20052;-74
2023/09/13 20:27:40;;;;;;;10.02;3.45;;;;;;;23.07;100.00;101189.47;20899201;28;20049;-74
2023/09/13 20:38:04;;;;;;;8.75;2.90;;;;;;;22.97;100.00;101178.06;20899845;28;20049;-74
2023/09/13 20:48:27;;;;;;;14.23;3.05;;;;;;;22.86;100.00;101179.31;20900137;28;20179;-74
2023/09/13 20:58:51;;;;;;;12.70;3.08;;;;;;;22.73;100.00;101168.00;20888450;28;20152;-75
2023/09/13 21:09:14;;;;;;;8.38;3.95;;;;;;;22.56;100.00;101172.94;20895140;28;20523;-73
2023/09/13 21:19:38;;;;;;;13.52;3.80;;;;;;;22.36;100.00;101173.47;20926438;28;20053;-74
2023/09/13 21:30:01;;;;;;;9.50;3.30;;;;;;;22.15;100.00;101172.22;20897476;28;20075;-73
2023/09/13 21:40:25;;;;;;;8.30;3.53;;;;;;;21.96;100.00;101170.03;20895872;28;20063;-73
2023/09/13 21:50:48;;;;;;;10.13;3.22;;;;;;;21.84;100.00;101180.16;20897721;28;20045;-73
2023/09/13 22:01:12;;;;;;;6.68;2.58;;;;;;;21.73;100.00;101182.19;20923187;28;20136;-73
2023/09/13 22:11:35;;;;;;;8.52;3.53;;;;;;;21.80;100.00;101175.75;20895563;28;20560;-74
2023/09/13 22:21:59;;;;;;;7.22;2.70;;;;;;;21.99;100.00;101183.44;20922023;28;20055;-72
2023/09/13 22:32:22;;;;;;;11.20;3.47;;;;;;;22.15;100.00;101176.72;20933294;28;20053;-73
2023/09/13 22:42:46;;;;;;;7.82;3.03;;;;;;;22.23;100.00;101163.97;20895355;28;20534;-73
2023/09/13 22:53:08;;;;;;;8.60;3.17;;;;;;;22.20;100.00;101159.53;20937412;28;20055;-73
2023/09/13 23:03:32;;;;;;;6.63;3.00;;;;;;;22.20;100.00;101148.78;20922745;28;20136;-73
2023/09/13 23:13:58;;;;;;;9.00;3.30;;;;;;;;;;20935912;28;20127;-74
2023/09/13 23:24:23;;;;;;;8.98;2.88;;;;;;;22.14;100.00;101131.91;20935988;28;20103;-73
2023/09/13 23:34:46;;;;;;;9.05;2.70;;;;;;;22.04;100.00;101119.66;20920400;28;20148;-74
2023/09/13 23:45:11;;;;;;;7.82;3.08;;;;;;;22.00;100.00;101120.63;20903426;28;20056;-73
2023/09/13 23:55:33;;;;;;;9.32;3.35;;;;;;;22.01;100.00;101123.28;20932901;28;20142;-74
